Here is the Quick Look data you requested

The Data originates at the National Weather Service, and is made available here by the UAlbany Department of Atmospheric and Environmental Sciences

Surface Observations

KCPK 151955Z AUTO 25003KT 10SM CLR 34/21 A2992 RMK AO2 T03390213=
KCPK 152015Z AUTO 22004KT 10SM CLR 34/22 A2992 RMK AO2 T03430221=
KCPK 152035Z AUTO 19005KT 10SM CLR 34/22 A2992 RMK AO2 T03430222=
KCPK 152055Z AUTO 25003KT 10SM CLR 34/22 A2992 RMK AO2 T03410219=
KCPK 152115Z AUTO 22003KT 10SM CLR 35/22 A2991 RMK AO2 T03460221=
KCPK 152135Z AUTO 00000KT 10SM CLR 34/23 A2991 RMK AO2 T03410228=
KCPK 152155Z AUTO 00000KT 10SM CLR 32/23 A2990 RMK AO2 T03220234=
KCPK 152215Z AUTO 17004KT 10SM CLR 33/23 A2989 RMK AO2 T03250233=
KCPK 152235Z AUTO 19004KT 10SM CLR 32/24 A2989 RMK AO2 T03200235=
KCPK 152255Z AUTO 17004KT 10SM CLR 32/23 A2989 RMK AO2 T03180234=
KCPK 152315Z AUTO 00000KT 10SM CLR 32/24 A2989 RMK AO2 T03150238=
KCPK 152335Z AUTO 00000KT 10SM CLR 32/24 A2990 RMK AO2 T03150242=
KCPK 152355Z AUTO 00000KT 10SM CLR 30/25 A2991 RMK AO2 T03030251 10347 20303=
KCPK 160015Z AUTO 16004KT 10SM CLR 30/25 A2992 RMK AO2 T02990251=
KCPK 160035Z AUTO 16006KT 10SM CLR 30/24 A2992 RMK AO2 T02950244=
KCPK 160055Z AUTO 17004KT 10SM CLR 29/25 A2992 RMK AO2 T02880245=
KCPK 160115Z AUTO 17004KT 10SM CLR 29/24 A2992 RMK AO2 T02860243=
KCPK 160135Z AUTO 17005KT 10SM CLR 28/24 A2991 RMK AO2 T02840242=
KCPK 160155Z AUTO 18006KT 10SM CLR 28/24 A2992 RMK AO2 T02820241=
KCPK 160215Z AUTO 18005KT 10SM CLR 28/24 A2992 RMK AO2 T02800240=
KCPK 160235Z AUTO 18008KT 10SM CLR 28/24 A2992 RMK AO2 T02760240=
KCPK 160255Z AUTO 18006KT 10SM CLR 28/24 A2992 RMK AO2 T02750238=
KCPK 160315Z AUTO 20004KT 10SM CLR 27/24 A2992 RMK AO2 T02740237=
KCPK 160335Z AUTO 20006KT 10SM CLR 27/24 A2991 RMK AO2 T02710236=
KCPK 160355Z AUTO 19004KT 10SM CLR 27/24 A2992 RMK AO2 T02650235=
KCPK 160415Z AUTO 21004KT 10SM CLR 26/23 A2992 RMK AO2 T02620234=
KCPK 160435Z AUTO 21005KT 10SM CLR 26/23 A2992 RMK AO2 T02610233=
KCPK 160455Z AUTO 20005KT 10SM CLR 26/23 A2991 RMK AO2 T02600234 403470230=
KCPK 160515Z AUTO 21005KT 10SM CLR 26/24 A2991 RMK AO2 T02570235=
KCPK 160535Z AUTO 21005KT 10SM CLR 26/23 A2991 RMK AO2 T02570232=
KCPK 160555Z AUTO 21005KT 10SM CLR 26/23 A2991 RMK AO2 T02580229 10302 20257=
KCPK 160615Z AUTO 21006KT 10SM CLR 26/23 A2990 RMK AO2 T02570225=
KCPK 160635Z AUTO 21007KT 10SM CLR 25/22 A2990 RMK AO2 T02530223=
KCPK 160655Z AUTO 21005KT 10SM CLR 25/22 A2990 RMK AO2 T02510221=
KCPK 160715Z AUTO 20005KT 10SM CLR 25/22 A2990 RMK AO2 T02480221=
KCPK 160735Z AUTO 21005KT 10SM CLR 25/22 A2990 RMK AO2 T02480221=
KCPK 160755Z AUTO 21004KT 10SM CLR 25/22 A2991 RMK AO2 T02460223=
KCPK 160815Z AUTO 21004KT 10SM CLR 24/22 A2991 RMK AO2 T02430223=
KCPK 160835Z AUTO 19004KT 10SM CLR 24/23 A2991 RMK AO2 T02400225=
KCPK 160855Z AUTO 20005KT 10SM CLR 24/22 A2992 RMK AO2 LTG DSNT S T02380223=
KCPK 160915Z AUTO 21004KT 10SM CLR 24/22 A2992 RMK AO2 T02370221=
KCPK 160935Z AUTO 20003KT 10SM CLR 24/22 A2992 RMK AO2 T02350220=
KCPK 160955Z AUTO 20003KT 10SM CLR 23/22 A2993 RMK AO2 T02330220=
KCPK 161015Z AUTO 20005KT 10SM CLR 24/22 A2993 RMK AO2 T02350219=
KCPK 161035Z AUTO 20004KT 10SM CLR 24/22 A2994 RMK AO2 T02350220=
KCPK 161055Z AUTO 20006KT 10SM CLR 24/22 A2994 RMK AO2 T02400223=
KCPK 161115Z AUTO 19005KT 10SM CLR 25/23 A2994 RMK AO2 T02450225=
KCPK 161135Z AUTO 19008KT 10SM CLR 25/23 A2994 RMK AO2 T02500225=
KCPK 161155Z AUTO 20006KT 10SM CLR 26/23 A2994 RMK AO2 T02580229 10260 20232=
KCPK 161215Z AUTO 20007KT 10SM CLR 26/23 A2994 RMK AO2 T02590229=
KCPK 161235Z AUTO 20007KT 170V230 10SM CLR 26/23 A2995 RMK AO2 T02620230=
KCPK 161255Z AUTO 21006KT 10SM CLR 27/23 A2994 RMK AO2 T02700233=
KCPK 161315Z AUTO 19007KT 10SM CLR 28/24 A2994 RMK AO2 T02750236=
KCPK 161335Z AUTO 18005KT 10SM CLR 28/24 A2994 RMK AO2 T02780236=
KCPK 161355Z AUTO 18009KT 10SM CLR 28/24 A2994 RMK AO2 T02800240=
KCPK 161415Z AUTO 19007KT 10SM CLR 29/24 A2994 RMK AO2 T02880243=
KCPK 161435Z AUTO 19009KT 10SM CLR 29/24 A2993 RMK AO2 T02860239=
KCPK 161455Z AUTO 18009KT 10SM CLR 29/25 A2993 RMK AO2 T02900245=
KCPK 161515Z AUTO 18009KT 10SM CLR 29/25 A2993 RMK AO2 T02940246=
KCPK 161535Z AUTO 19007KT 10SM CLR 30/25 A2994 RMK AO2 T03000254=
KCPK 161555Z AUTO 18008KT 10SM CLR 31/25 A2994 RMK AO2 T03060253=
KCPK 161615Z AUTO 20008KT 10SM CLR 31/25 A2993 RMK AO2 T03110250=
KCPK 161635Z AUTO 20008KT 10SM CLR 32/25 A2993 RMK AO2 T03160253=
KCPK 161655Z AUTO 21010KT 10SM CLR 32/25 A2992 RMK AO2 T03180254=
KCPK 161715Z AUTO 18008KT 150V210 10SM CLR 32/26 A2992 RMK AO2 T03240259=
KCPK 161735Z AUTO 20009KT 10SM CLR 32/25 A2991 RMK AO2 T03210251=
KCPK 161755Z AUTO 20008G16KT 170V230 10SM CLR 32/26 A2991 RMK AO2 T03240255
 10324 20257=
KCPK 161815Z AUTO 17010KT 10SM SCT032 33/26 A2991 RMK AO2 T03260255=
KCPK 161835Z AUTO 19010G14KT 10SM SCT032 33/25 A2990 RMK AO2 T03310249=
KCPK 161855Z AUTO 21007KT 10SM CLR 33/25 A2990 RMK AO2 T03300248=
KCPK 161915Z AUTO 21008KT 10SM CLR 33/25 A2989 RMK AO2 T03320250=
KCPK 161935Z AUTO 21010G16KT 10SM CLR 33/24 A2988 RMK AO2 T03320241=
KCPK 161955Z AUTO 21008G14KT 10SM CLR 33/24 A2988 RMK AO2 T03330242=

Decoded Surface Observations


The weather observed at CHESAPEAKE, VA (KCPK) at 03:55 PM EDT was:
  The skies were clear.
  Temperature: 93F ( 34C)  Dewpoint:  70F ( 21C)  Relative Humidity:  47%
  Winds from the WSW(250 degs) at  3 mph.
  Altimeter:29.92 inches of mercury.
  The prevailing visibility was 10 miles.

The weather observed at CHESAPEAKE, VA (KCPK) at 04:15 PM EDT was:
  The skies were clear.
  Temperature: 93F ( 34C)  Dewpoint:  72F ( 22C)  Relative Humidity:  50%
  Winds from the SW (220 degs) at  5 mph.
  Altimeter:29.92 inches of mercury.
  The prevailing visibility was 10 miles.

The weather observed at CHESAPEAKE, VA (KCPK) at 04:35 PM EDT was:
  The skies were clear.
  Temperature: 93F ( 34C)  Dewpoint:  72F ( 22C)  Relative Humidity:  50%
  Winds from the S  (190 degs) at  6 mph.
  Altimeter:29.92 inches of mercury.
  The prevailing visibility was 10 miles.

The weather observed at CHESAPEAKE, VA (KCPK) at 04:55 PM EDT was:
  The skies were clear.
  Temperature: 93F ( 34C)  Dewpoint:  72F ( 22C)  Relative Humidity:  50%
  Winds from the WSW(250 degs) at  3 mph.
  Altimeter:29.92 inches of mercury.
  The prevailing visibility was 10 miles.

The weather observed at CHESAPEAKE, VA (KCPK) at 05:15 PM EDT was:
  The skies were clear.
  Temperature: 95F ( 35C)  Dewpoint:  72F ( 22C)  Relative Humidity:  47%
  Winds from the SW (220 degs) at  3 mph.
  Altimeter:29.91 inches of mercury.
  The prevailing visibility was 10 miles.

The weather observed at CHESAPEAKE, VA (KCPK) at 05:35 PM EDT was:
  The skies were clear.
  Temperature: 93F ( 34C)  Dewpoint:  73F ( 23C)  Relative Humidity:  53%
  Winds from the CLM(CLM degs) at  0 mph.
  Altimeter:29.91 inches of mercury.
  The prevailing visibility was 10 miles.

The weather observed at CHESAPEAKE, VA (KCPK) at 05:55 PM EDT was:
  The skies were clear.
  Temperature: 90F ( 32C)  Dewpoint:  73F ( 23C)  Relative Humidity:  59%
  Winds from the CLM(CLM degs) at  0 mph.
  Altimeter:29.90 inches of mercury.
  The prevailing visibility was 10 miles.

The weather observed at CHESAPEAKE, VA (KCPK) at 06:15 PM EDT was:
  The skies were clear.
  Temperature: 91F ( 33C)  Dewpoint:  73F ( 23C)  Relative Humidity:  56%
  Winds from the S  (170 degs) at  5 mph.
  Altimeter:29.89 inches of mercury.
  The prevailing visibility was 10 miles.

The weather observed at CHESAPEAKE, VA (KCPK) at 06:35 PM EDT was:
  The skies were clear.
  Temperature: 90F ( 32C)  Dewpoint:  75F ( 24C)  Relative Humidity:  63%
  Winds from the S  (190 degs) at  5 mph.
  Altimeter:29.89 inches of mercury.
  The prevailing visibility was 10 miles.

The weather observed at CHESAPEAKE, VA (KCPK) at 06:55 PM EDT was:
  The skies were clear.
  Temperature: 90F ( 32C)  Dewpoint:  73F ( 23C)  Relative Humidity:  59%
  Winds from the S  (170 degs) at  5 mph.
  Altimeter:29.89 inches of mercury.
  The prevailing visibility was 10 miles.

The weather observed at CHESAPEAKE, VA (KCPK) at 07:15 PM EDT was:
  The skies were clear.
  Temperature: 90F ( 32C)  Dewpoint:  75F ( 24C)  Relative Humidity:  63%
  Winds from the CLM(CLM degs) at  0 mph.
  Altimeter:29.89 inches of mercury.
  The prevailing visibility was 10 miles.

The weather observed at CHESAPEAKE, VA (KCPK) at 07:35 PM EDT was:
  The skies were clear.
  Temperature: 90F ( 32C)  Dewpoint:  75F ( 24C)  Relative Humidity:  63%
  Winds from the CLM(CLM degs) at  0 mph.
  Altimeter:29.90 inches of mercury.
  The prevailing visibility was 10 miles.

The weather observed at CHESAPEAKE, VA (KCPK) at 07:55 PM EDT was:
  The skies were clear.
  Temperature: 87F ( 30C)  Dewpoint:  77F ( 25C)  Relative Humidity:  74%
  Winds from the CLM(CLM degs) at  0 mph.
  Altimeter:29.91 inches of mercury.
  The prevailing visibility was 10 miles.
  The maximum temperature in the past 6 hours was  94F.

The weather observed at CHESAPEAKE, VA (KCPK) at 08:15 PM EDT was:
  The skies were clear.
  Temperature: 86F ( 30C)  Dewpoint:  77F ( 25C)  Relative Humidity:  75%
  Winds from the SSE(160 degs) at  5 mph.
  Altimeter:29.92 inches of mercury.
  The prevailing visibility was 10 miles.

The weather observed at CHESAPEAKE, VA (KCPK) at 08:35 PM EDT was:
  The skies were clear.
  Temperature: 86F ( 30C)  Dewpoint:  75F ( 24C)  Relative Humidity:  70%
  Winds from the SSE(160 degs) at  7 mph.
  Altimeter:29.92 inches of mercury.
  The prevailing visibility was 10 miles.

The weather observed at CHESAPEAKE, VA (KCPK) at 08:55 PM EDT was:
  The skies were clear.
  Temperature: 84F ( 29C)  Dewpoint:  77F ( 25C)  Relative Humidity:  79%
  Winds from the S  (170 degs) at  5 mph.
  Altimeter:29.92 inches of mercury.
  The prevailing visibility was 10 miles.

The weather observed at CHESAPEAKE, VA (KCPK) at 09:15 PM EDT was:
  The skies were clear.
  Temperature: 84F ( 29C)  Dewpoint:  75F ( 24C)  Relative Humidity:  74%
  Winds from the S  (170 degs) at  5 mph.
  Altimeter:29.92 inches of mercury.
  The prevailing visibility was 10 miles.

The weather observed at CHESAPEAKE, VA (KCPK) at 09:35 PM EDT was:
  The skies were clear.
  Temperature: 82F ( 28C)  Dewpoint:  75F ( 24C)  Relative Humidity:  79%
  Winds from the S  (170 degs) at  6 mph.
  Altimeter:29.91 inches of mercury.
  The prevailing visibility was 10 miles.

The weather observed at CHESAPEAKE, VA (KCPK) at 09:55 PM EDT was:
  The skies were clear.
  Temperature: 82F ( 28C)  Dewpoint:  75F ( 24C)  Relative Humidity:  79%
  Winds from the S  (180 degs) at  7 mph.
  Altimeter:29.92 inches of mercury.
  The prevailing visibility was 10 miles.

The weather observed at CHESAPEAKE, VA (KCPK) at 10:15 PM EDT was:
  The skies were clear.
  Temperature: 82F ( 28C)  Dewpoint:  75F ( 24C)  Relative Humidity:  79%
  Winds from the S  (180 degs) at  6 mph.
  Altimeter:29.92 inches of mercury.
  The prevailing visibility was 10 miles.

The weather observed at CHESAPEAKE, VA (KCPK) at 10:35 PM EDT was:
  The skies were clear.
  Temperature: 82F ( 28C)  Dewpoint:  75F ( 24C)  Relative Humidity:  79%
  Winds from the S  (180 degs) at  9 mph.
  Altimeter:29.92 inches of mercury.
  The prevailing visibility was 10 miles.

The weather observed at CHESAPEAKE, VA (KCPK) at 10:55 PM EDT was:
  The skies were clear.
  Temperature: 82F ( 28C)  Dewpoint:  75F ( 24C)  Relative Humidity:  79%
  Winds from the S  (180 degs) at  7 mph.
  Altimeter:29.92 inches of mercury.
  The prevailing visibility was 10 miles.

The weather observed at CHESAPEAKE, VA (KCPK) at 11:15 PM EDT was:
  The skies were clear.
  Temperature: 81F ( 27C)  Dewpoint:  75F ( 24C)  Relative Humidity:  84%
  Winds from the SSW(200 degs) at  5 mph.
  Altimeter:29.92 inches of mercury.
  The prevailing visibility was 10 miles.

The weather observed at CHESAPEAKE, VA (KCPK) at 11:35 PM EDT was:
  The skies were clear.
  Temperature: 81F ( 27C)  Dewpoint:  75F ( 24C)  Relative Humidity:  84%
  Winds from the SSW(200 degs) at  7 mph.
  Altimeter:29.91 inches of mercury.
  The prevailing visibility was 10 miles.

The weather observed at CHESAPEAKE, VA (KCPK) at 11:55 PM EDT was:
  The skies were clear.
  Temperature: 81F ( 27C)  Dewpoint:  75F ( 24C)  Relative Humidity:  84%
  Winds from the S  (190 degs) at  5 mph.
  Altimeter:29.92 inches of mercury.
  The prevailing visibility was 10 miles.

The weather observed at CHESAPEAKE, VA (KCPK) at 12:15 AM EDT was:
  The skies were clear.
  Temperature: 79F ( 26C)  Dewpoint:  73F ( 23C)  Relative Humidity:  84%
  Winds from the SW (210 degs) at  5 mph.
  Altimeter:29.92 inches of mercury.
  The prevailing visibility was 10 miles.

The weather observed at CHESAPEAKE, VA (KCPK) at 12:35 AM EDT was:
  The skies were clear.
  Temperature: 79F ( 26C)  Dewpoint:  73F ( 23C)  Relative Humidity:  84%
  Winds from the SW (210 degs) at  6 mph.
  Altimeter:29.92 inches of mercury.
  The prevailing visibility was 10 miles.

The weather observed at CHESAPEAKE, VA (KCPK) at 12:55 AM EDT was:
  The skies were clear.
  Temperature: 79F ( 26C)  Dewpoint:  74F ( 23C)  Relative Humidity:  86%
  Winds from the SSW(200 degs) at  6 mph.
  Altimeter:29.91 inches of mercury.
  The prevailing visibility was 10 miles.

The weather observed at CHESAPEAKE, VA (KCPK) at 01:15 AM EDT was:
  The skies were clear.
  Temperature: 79F ( 26C)  Dewpoint:  75F ( 24C)  Relative Humidity:  89%
  Winds from the SW (210 degs) at  6 mph.
  Altimeter:29.91 inches of mercury.
  The prevailing visibility was 10 miles.

The weather observed at CHESAPEAKE, VA (KCPK) at 01:35 AM EDT was:
  The skies were clear.
  Temperature: 79F ( 26C)  Dewpoint:  73F ( 23C)  Relative Humidity:  84%
  Winds from the SW (210 degs) at  6 mph.
  Altimeter:29.91 inches of mercury.
  The prevailing visibility was 10 miles.

The weather observed at CHESAPEAKE, VA (KCPK) at 01:55 AM EDT was:
  The skies were clear.
  Temperature: 78F ( 26C)  Dewpoint:  73F ( 23C)  Relative Humidity:  84%
  Winds from the SW (210 degs) at  6 mph.
  Altimeter:29.91 inches of mercury.
  The prevailing visibility was 10 miles.
  The maximum temperature in the past 6 hours was  86F.

The weather observed at CHESAPEAKE, VA (KCPK) at 02:15 AM EDT was:
  The skies were clear.
  Temperature: 79F ( 26C)  Dewpoint:  73F ( 23C)  Relative Humidity:  84%
  Winds from the SW (210 degs) at  7 mph.
  Altimeter:29.90 inches of mercury.
  The prevailing visibility was 10 miles.

The weather observed at CHESAPEAKE, VA (KCPK) at 02:35 AM EDT was:
  The skies were clear.
  Temperature: 77F ( 25C)  Dewpoint:  72F ( 22C)  Relative Humidity:  83%
  Winds from the SW (210 degs) at  8 mph.
  Altimeter:29.90 inches of mercury.
  The prevailing visibility was 10 miles.

The weather observed at CHESAPEAKE, VA (KCPK) at 02:55 AM EDT was:
  The skies were clear.
  Temperature: 77F ( 25C)  Dewpoint:  72F ( 22C)  Relative Humidity:  83%
  Winds from the SW (210 degs) at  6 mph.
  Altimeter:29.90 inches of mercury.
  The prevailing visibility was 10 miles.

The weather observed at CHESAPEAKE, VA (KCPK) at 03:15 AM EDT was:
  The skies were clear.
  Temperature: 77F ( 25C)  Dewpoint:  72F ( 22C)  Relative Humidity:  83%
  Winds from the SSW(200 degs) at  6 mph.
  Altimeter:29.90 inches of mercury.
  The prevailing visibility was 10 miles.

The weather observed at CHESAPEAKE, VA (KCPK) at 03:35 AM EDT was:
  The skies were clear.
  Temperature: 77F ( 25C)  Dewpoint:  72F ( 22C)  Relative Humidity:  83%
  Winds from the SW (210 degs) at  6 mph.
  Altimeter:29.90 inches of mercury.
  The prevailing visibility was 10 miles.

The weather observed at CHESAPEAKE, VA (KCPK) at 03:55 AM EDT was:
  The skies were clear.
  Temperature: 77F ( 25C)  Dewpoint:  72F ( 22C)  Relative Humidity:  83%
  Winds from the SW (210 degs) at  5 mph.
  Altimeter:29.91 inches of mercury.
  The prevailing visibility was 10 miles.

The weather observed at CHESAPEAKE, VA (KCPK) at 04:15 AM EDT was:
  The skies were clear.
  Temperature: 75F ( 24C)  Dewpoint:  72F ( 22C)  Relative Humidity:  89%
  Winds from the SW (210 degs) at  5 mph.
  Altimeter:29.91 inches of mercury.
  The prevailing visibility was 10 miles.

The weather observed at CHESAPEAKE, VA (KCPK) at 04:35 AM EDT was:
  The skies were clear.
  Temperature: 75F ( 24C)  Dewpoint:  73F ( 23C)  Relative Humidity:  94%
  Winds from the S  (190 degs) at  5 mph.
  Altimeter:29.91 inches of mercury.
  The prevailing visibility was 10 miles.

The weather observed at CHESAPEAKE, VA (KCPK) at 04:55 AM EDT was:
  The skies were clear.
  Temperature: 75F ( 24C)  Dewpoint:  72F ( 22C)  Relative Humidity:  89%
  Winds from the SSW(200 degs) at  6 mph.
  Altimeter:29.92 inches of mercury.
  The prevailing visibility was 10 miles.

The weather observed at CHESAPEAKE, VA (KCPK) at 05:15 AM EDT was:
  The skies were clear.
  Temperature: 75F ( 24C)  Dewpoint:  72F ( 22C)  Relative Humidity:  89%
  Winds from the SW (210 degs) at  5 mph.
  Altimeter:29.92 inches of mercury.
  The prevailing visibility was 10 miles.

The weather observed at CHESAPEAKE, VA (KCPK) at 05:35 AM EDT was:
  The skies were clear.
  Temperature: 75F ( 24C)  Dewpoint:  72F ( 22C)  Relative Humidity:  89%
  Winds from the SSW(200 degs) at  3 mph.
  Altimeter:29.92 inches of mercury.
  The prevailing visibility was 10 miles.

The weather observed at CHESAPEAKE, VA (KCPK) at 05:55 AM EDT was:
  The skies were clear.
  Temperature: 73F ( 23C)  Dewpoint:  72F ( 22C)  Relative Humidity:  94%
  Winds from the SSW(200 degs) at  3 mph.
  Altimeter:29.93 inches of mercury.
  The prevailing visibility was 10 miles.

The weather observed at CHESAPEAKE, VA (KCPK) at 06:15 AM EDT was:
  The skies were clear.
  Temperature: 75F ( 24C)  Dewpoint:  72F ( 22C)  Relative Humidity:  89%
  Winds from the SSW(200 degs) at  6 mph.
  Altimeter:29.93 inches of mercury.
  The prevailing visibility was 10 miles.

The weather observed at CHESAPEAKE, VA (KCPK) at 06:35 AM EDT was:
  The skies were clear.
  Temperature: 75F ( 24C)  Dewpoint:  72F ( 22C)  Relative Humidity:  89%
  Winds from the SSW(200 degs) at  5 mph.
  Altimeter:29.94 inches of mercury.
  The prevailing visibility was 10 miles.

The weather observed at CHESAPEAKE, VA (KCPK) at 06:55 AM EDT was:
  The skies were clear.
  Temperature: 75F ( 24C)  Dewpoint:  72F ( 22C)  Relative Humidity:  89%
  Winds from the SSW(200 degs) at  7 mph.
  Altimeter:29.94 inches of mercury.
  The prevailing visibility was 10 miles.

The weather observed at CHESAPEAKE, VA (KCPK) at 07:15 AM EDT was:
  The skies were clear.
  Temperature: 77F ( 25C)  Dewpoint:  73F ( 23C)  Relative Humidity:  89%
  Winds from the S  (190 degs) at  6 mph.
  Altimeter:29.94 inches of mercury.
  The prevailing visibility was 10 miles.

The weather observed at CHESAPEAKE, VA (KCPK) at 07:35 AM EDT was:
  The skies were clear.
  Temperature: 77F ( 25C)  Dewpoint:  73F ( 23C)  Relative Humidity:  89%
  Winds from the S  (190 degs) at  9 mph.
  Altimeter:29.94 inches of mercury.
  The prevailing visibility was 10 miles.

The weather observed at CHESAPEAKE, VA (KCPK) at 07:55 AM EDT was:
  The skies were clear.
  Temperature: 78F ( 26C)  Dewpoint:  73F ( 23C)  Relative Humidity:  84%
  Winds from the SSW(200 degs) at  7 mph.
  Altimeter:29.94 inches of mercury.
  The prevailing visibility was 10 miles.
  The maximum temperature in the past 6 hours was  79F.

The weather observed at CHESAPEAKE, VA (KCPK) at 08:15 AM EDT was:
  The skies were clear.
  Temperature: 79F ( 26C)  Dewpoint:  73F ( 23C)  Relative Humidity:  84%
  Winds from the SSW(200 degs) at  8 mph.
  Altimeter:29.94 inches of mercury.
  The prevailing visibility was 10 miles.

The weather observed at CHESAPEAKE, VA (KCPK) at 08:35 AM EDT was:
  The skies were clear.
  Temperature: 79F ( 26C)  Dewpoint:  73F ( 23C)  Relative Humidity:  84%
  Winds from the SSW(200 degs) at  8 mph.
  Altimeter:29.95 inches of mercury.
  The prevailing visibility was 10 miles.

The weather observed at CHESAPEAKE, VA (KCPK) at 08:55 AM EDT was:
  The skies were clear.
  Temperature: 81F ( 27C)  Dewpoint:  73F ( 23C)  Relative Humidity:  79%
  Winds from the SW (210 degs) at  7 mph.
  Altimeter:29.94 inches of mercury.
  The prevailing visibility was 10 miles.

The weather observed at CHESAPEAKE, VA (KCPK) at 09:15 AM EDT was:
  The skies were clear.
  Temperature: 82F ( 28C)  Dewpoint:  75F ( 24C)  Relative Humidity:  79%
  Winds from the S  (190 degs) at  8 mph.
  Altimeter:29.94 inches of mercury.
  The prevailing visibility was 10 miles.

The weather observed at CHESAPEAKE, VA (KCPK) at 09:35 AM EDT was:
  The skies were clear.
  Temperature: 82F ( 28C)  Dewpoint:  75F ( 24C)  Relative Humidity:  79%
  Winds from the S  (180 degs) at  6 mph.
  Altimeter:29.94 inches of mercury.
  The prevailing visibility was 10 miles.

The weather observed at CHESAPEAKE, VA (KCPK) at 09:55 AM EDT was:
  The skies were clear.
  Temperature: 82F ( 28C)  Dewpoint:  75F ( 24C)  Relative Humidity:  79%
  Winds from the S  (180 degs) at 10 mph.
  Altimeter:29.94 inches of mercury.
  The prevailing visibility was 10 miles.

The weather observed at CHESAPEAKE, VA (KCPK) at 10:15 AM EDT was:
  The skies were clear.
  Temperature: 84F ( 29C)  Dewpoint:  75F ( 24C)  Relative Humidity:  74%
  Winds from the S  (190 degs) at  8 mph.
  Altimeter:29.94 inches of mercury.
  The prevailing visibility was 10 miles.

The weather observed at CHESAPEAKE, VA (KCPK) at 10:35 AM EDT was:
  The skies were clear.
  Temperature: 84F ( 29C)  Dewpoint:  75F ( 24C)  Relative Humidity:  74%
  Winds from the S  (190 degs) at 10 mph.
  Altimeter:29.93 inches of mercury.
  The prevailing visibility was 10 miles.

The weather observed at CHESAPEAKE, VA (KCPK) at 10:55 AM EDT was:
  The skies were clear.
  Temperature: 84F ( 29C)  Dewpoint:  77F ( 25C)  Relative Humidity:  79%
  Winds from the S  (180 degs) at 10 mph.
  Altimeter:29.93 inches of mercury.
  The prevailing visibility was 10 miles.

The weather observed at CHESAPEAKE, VA (KCPK) at 11:15 AM EDT was:
  The skies were clear.
  Temperature: 84F ( 29C)  Dewpoint:  77F ( 25C)  Relative Humidity:  79%
  Winds from the S  (180 degs) at 10 mph.
  Altimeter:29.93 inches of mercury.
  The prevailing visibility was 10 miles.

The weather observed at CHESAPEAKE, VA (KCPK) at 11:35 AM EDT was:
  The skies were clear.
  Temperature: 86F ( 30C)  Dewpoint:  77F ( 25C)  Relative Humidity:  75%
  Winds from the S  (190 degs) at  8 mph.
  Altimeter:29.94 inches of mercury.
  The prevailing visibility was 10 miles.

The weather observed at CHESAPEAKE, VA (KCPK) at 11:55 AM EDT was:
  The skies were clear.
  Temperature: 88F ( 31C)  Dewpoint:  77F ( 25C)  Relative Humidity:  70%
  Winds from the S  (180 degs) at  9 mph.
  Altimeter:29.94 inches of mercury.
  The prevailing visibility was 10 miles.

The weather observed at CHESAPEAKE, VA (KCPK) at 12:15 PM EDT was:
  The skies were clear.
  Temperature: 88F ( 31C)  Dewpoint:  77F ( 25C)  Relative Humidity:  70%
  Winds from the SSW(200 degs) at  9 mph.
  Altimeter:29.93 inches of mercury.
  The prevailing visibility was 10 miles.

The weather observed at CHESAPEAKE, VA (KCPK) at 12:35 PM EDT was:
  The skies were clear.
  Temperature: 90F ( 32C)  Dewpoint:  77F ( 25C)  Relative Humidity:  67%
  Winds from the SSW(200 degs) at  9 mph.
  Altimeter:29.93 inches of mercury.
  The prevailing visibility was 10 miles.

The weather observed at CHESAPEAKE, VA (KCPK) at 12:55 PM EDT was:
  The skies were clear.
  Temperature: 90F ( 32C)  Dewpoint:  77F ( 25C)  Relative Humidity:  67%
  Winds from the SW (210 degs) at 12 mph.
  Altimeter:29.92 inches of mercury.
  The prevailing visibility was 10 miles.

The weather observed at CHESAPEAKE, VA (KCPK) at 01:15 PM EDT was:
  The skies were clear.
  Temperature: 90F ( 32C)  Dewpoint:  79F ( 26C)  Relative Humidity:  71%
  Winds from the S  (180 degs) at  9 mph.
  Altimeter:29.92 inches of mercury.
  The prevailing visibility was 10 miles.

The weather observed at CHESAPEAKE, VA (KCPK) at 01:35 PM EDT was:
  The skies were clear.
  Temperature: 90F ( 32C)  Dewpoint:  77F ( 25C)  Relative Humidity:  67%
  Winds from the SSW(200 degs) at 10 mph.
  Altimeter:29.91 inches of mercury.
  The prevailing visibility was 10 miles.

The weather observed at CHESAPEAKE, VA (KCPK) at 01:55 PM EDT was:
  The skies were clear.
  Temperature: 90F ( 32C)  Dewpoint:  78F ( 26C)  Relative Humidity:  67%
  Winds from the SSW(200 degs) at  9 mph.
  Altimeter:29.91 inches of mercury.
  The prevailing visibility was 10 miles.
  The maximum temperature in the past 6 hours was  90F.

The weather observed at CHESAPEAKE, VA (KCPK) at 02:15 PM EDT was:
  The skies were partly cloudy.
  Temperature: 91F ( 33C)  Dewpoint:  79F ( 26C)  Relative Humidity:  67%
  Winds from the S  (170 degs) at 12 mph.
  Altimeter:29.91 inches of mercury.
  The prevailing visibility was 10 miles.

The weather observed at CHESAPEAKE, VA (KCPK) at 02:35 PM EDT was:
  The skies were partly cloudy.
  Temperature: 91F ( 33C)  Dewpoint:  77F ( 25C)  Relative Humidity:  63%
  Winds from the S  (190 degs) at 12 mph.
  Altimeter:29.90 inches of mercury.
  The prevailing visibility was 10 miles.

The weather observed at CHESAPEAKE, VA (KCPK) at 02:55 PM EDT was:
  The skies were clear.
  Temperature: 91F ( 33C)  Dewpoint:  77F ( 25C)  Relative Humidity:  63%
  Winds from the SW (210 degs) at  8 mph.
  Altimeter:29.90 inches of mercury.
  The prevailing visibility was 10 miles.

The weather observed at CHESAPEAKE, VA (KCPK) at 03:15 PM EDT was:
  The skies were clear.
  Temperature: 91F ( 33C)  Dewpoint:  77F ( 25C)  Relative Humidity:  63%
  Winds from the SW (210 degs) at  9 mph.
  Altimeter:29.89 inches of mercury.
  The prevailing visibility was 10 miles.

The weather observed at CHESAPEAKE, VA (KCPK) at 03:35 PM EDT was:
  The skies were clear.
  Temperature: 91F ( 33C)  Dewpoint:  75F ( 24C)  Relative Humidity:  59%
  Winds from the SW (210 degs) at 12 mph.
  Altimeter:29.88 inches of mercury.
  The prevailing visibility was 10 miles.

The weather observed at CHESAPEAKE, VA (KCPK) at 03:55 PM EDT was:
  The skies were clear.
  Temperature: 91F ( 33C)  Dewpoint:  75F ( 24C)  Relative Humidity:  59%
  Winds from the SW (210 degs) at  9 mph.
  Altimeter:29.88 inches of mercury.
  The prevailing visibility was 10 miles.

Short Range Forecast

Sorry no data found for cpk
Make sure cpk is a valid station
You might need to specify a nearby major city
Try Again

Zone Forecast

VAZ097-170200-
Chesapeake-
Including the cities of Mount Pleasant, Bowers Hill,
Chesapeake Airport, Deep Creek, Fentress, Great Bridge,
and Greenbrier
245 PM EDT Tue Jul 16 2024

...EXCESSIVE HEAT WARNING REMAINS IN EFFECT UNTIL 8 PM EDT THIS
EVENING...
...HEAT ADVISORY IN EFFECT FROM 11 AM TO 8 PM EDT WEDNESDAY...

.THIS AFTERNOON...Mostly sunny with a slight chance of showers
and thunderstorms. Highs in the upper 90s. Southwest winds 10 to
15 mph. Chance of rain 20 percent. Heat index values up to 110.
.TONIGHT...Partly cloudy. A slight chance of showers and
thunderstorms in the evening. Humid with lows in the upper 70s.
Southwest winds 5 to 10 mph. Gusts up to 20 mph in the evening.
Chance of rain 20 percent. Heat index values up to 107 early in
the evening.
.WEDNESDAY...Partly sunny. A chance of showers and thunderstorms
in the afternoon. Hot with highs in the mid 90s. Southwest winds
10 to 15 mph with gusts up to 25 mph. Chance of rain 50 percent.
Heat index values up to 110.
.WEDNESDAY NIGHT...A chance of showers and thunderstorms in the
evening, then showers and thunderstorms likely after midnight.
Humid with lows in the mid 70s. Southwest winds 10 to 15 mph.
Chance of rain 60 percent. Heat index values up to 101 early in
the evening.
.THURSDAY...Showers likely with a chance of thunderstorms in the
morning, then showers and thunderstorms likely in the afternoon.
Humid with highs in the upper 80s. West winds 5 to 10 mph. Chance
of rain 70 percent.
.THURSDAY NIGHT...Thunderstorms likely. Showers likely. Lows in
the lower 70s. Chance of rain 70 percent.
.FRIDAY...Mostly cloudy with a chance of showers. A chance of
thunderstorms in the afternoon. Highs in the mid 80s. Chance of
rain 50 percent.
.FRIDAY NIGHT...A chance of thunderstorms in the evening. Mostly
cloudy with a chance of showers. Lows in the lower 70s. Chance of
rain 50 percent.
.SATURDAY...Mostly cloudy with a chance of showers. A chance of
thunderstorms in the afternoon. Highs in the mid 80s. Chance of
rain 50 percent.
.SATURDAY NIGHT...Mostly cloudy with a chance of showers and
thunderstorms. Lows in the lower 70s. Chance of rain 50 percent.
.SUNDAY...Mostly cloudy with a chance of showers. A chance of
thunderstorms in the afternoon. Highs in the upper 80s. Chance of
rain 50 percent.
.SUNDAY NIGHT...Mostly cloudy with a chance of showers and
thunderstorms. Lows in the lower 70s. Chance of rain 50 percent.
.MONDAY...Mostly cloudy with a chance of showers. A chance of
thunderstorms in the afternoon. Highs in the mid 80s. Chance of
rain 50 percent.


State Forecast

Sorry no data found for cpk
Make sure cpk is a valid station
You might need to specify a nearby major city
Try Again

State Forecast Discussion

Sorry no data found for cpk
Make sure cpk is a valid station
You might need to specify a nearby major city
Try Again

GFS Short-Range Model Output Statistics (MOS) Forecast

KCPK   GFS MOS GUIDANCE    7/16/2024  1200 UTC
DT /JULY 16/JULY 17                /JULY 18                /JULY 19
HR   18 21 00 03 06 09 12 15 18 21 00 03 06 09 12 15 18 21 00 06 12
N/X                    78          94          76          85    69
TMP  93 95 89 82 81 80 82 88 92 90 84 80 78 77 79 80 82 79 76 71 73
DPT  72 72 74 75 75 75 76 75 74 75 75 74 74 74 75 73 73 73 73 71 71
CLD  CL SC BK BK SC SC BK SC BK BK OV OV OV OV OV OV OV OV OV OV OV
WDR  20 21 19 20 20 20 21 21 21 20 20 21 20 21 23 25 34 06 04 00 36
WSP  11 12 08 07 06 06 07 10 12 13 10 08 07 04 03 04 04 04 04 00 02
P06         1     1     9    12    46    39    28    36    64 49 21
P12                     9          46          58          68    51
Q06         0     0     0     0     2     1     0     1     5  2  0
Q12                     0           1           2           5     2
T06     24/21 14/10  3/ 1 10/ 2 41/21 28/ 7 17/ 0 25/ 0 41/ 9 11/ 0
T12           26/21       10/ 3       53/22       33/ 2    43/ 9
CIG   8  8  8  8  8  8  8  8  8  8  8  7  8  3  3  4  5  6  4  4  7
VIS   7  7  7  7  7  7  7  7  7  7  7  7  7  7  7  7  7  6  5  5  7
OBV   N  N  N  N  N  N  N  N  N  N  N  N  N  N  N  N  N  N BR BR  N

GFS Long-Range Model Output Statistics (MOS) Forecast

KCPK   GFSX MOS GUIDANCE   7/16/2024  1200 UTC
FHR  24  36| 48  60| 72  84| 96 108|120 132|144 156|168 180|192
     WED 17| THU 18| FRI 19| SAT 20| SUN 21| MON 22| TUE 23|WED CLIMO
N/X  78  94| 76  85| 69  86| 69  86| 71  88| 72  87| 71  89| 70 70 88
TMP  82  84| 79  76| 73  77| 73  77| 75  80| 76  79| 76  80| 75
DPT  76  75| 75  73| 71  70| 71  72| 73  72| 73  73| 73  73| 72
CLD  OV  OV| OV  OV| OV  OV| OV  OV| OV  OV| OV  OV| PC  PC| PC
WND   8  13| 10   4|  4   6|  3   5|  2   7|  4   5|  4   6|  4
P12   9  46| 58  68| 51  32| 25  47| 31  40| 42  39| 36  33| 26999999
P24      46|     85|     59|     49|     55|     58|     55|      999
Q12   0   1|  2   5|  2   0|  0   2|  0   2|  3   4|       |
Q24       1|      5|      1|      1|      2|      4|       |
T12  14  41| 33  49| 25  20| 11  29| 24  42| 27  38| 24  34| 20
T24        | 55    | 49    | 21    | 38    | 54    | 42    | 34

NGM Model Output Statistics (MOS) Forecast

Climatological Summary

Sorry no data found for cpk
Make sure cpk is a valid station
You might need to specify a nearby major city
Try Again

Watch and Warning Statment

Sorry no data found for cpk
Make sure cpk is a valid station
You might need to specify a nearby major city
or it could be THERE ARE NO WATCHES OR WARNINGS for cpk
Try Again

Park/Ski Recreation Report/Forecast

Sorry no data found for cpk
Make sure cpk is a valid station
You might need to specify a nearby major city
Try Again